Flight Track Log - Related Links

Times and Time Zones

All times are in EDT time to prevent confusion due to time zone crossing. See the SIL3622 flight status page for this flight to view local times or setup timezone preferences in your user account.

Time Position Orientation Groundspeed Altitude Reporting Facility
EDT Latitude Longitude Course Direction KTS MPH feet Rate Location/Type
Tue 06:18:58 PM 34.3033 -88.8536 297° West 257 296 5,300  Level Memphis Center
Tue 06:19:58 PM 34.3414 -88.8906 321° Northwest 214 246 7,400 1,800 Climbing Memphis Center
Tue 06:20:58 PM 34.3681 -88.8500 51° Northeast 118 136 8,900 1,500 Climbing Memphis Center
Tue 06:21:58 PM 34.3589 -88.7822 99° East 123 142 10,400 1,450 Climbing Memphis Center
Tue 06:22:58 PM 34.3475 -88.7169 102° East 157 181 11,800 1,350 Climbing Memphis Center
Tue 06:23:58 PM 34.3383 -88.6467 99° East 192 221 13,100 1,350 Climbing Memphis Center
Tue 06:24:58 PM 34.3269 -88.5817 102° East 199 229 14,500 1,250 Climbing Memphis Center
Tue 06:25:58 PM 34.3156 -88.5139 101° East 199 229 15,600 1,150 Climbing Memphis Center
Tue 06:26:58 PM 34.3019 -88.4436 103° East 199 229 16,800 700 Climbing Memphis Center
Tue 06:27:58 PM 34.2842 -88.3711 107° East 204 235 17,000 100 Climbing Memphis Center
Tue 06:28:58 PM 34.2597 -88.2864 109° East 234 269 17,000  Level Memphis Center
Tue 06:29:58 PM 34.2331 -88.1967 110° East 262 302 17,000  Level Memphis Center
Tue 06:30:58 PM 34.2025 -88.1094 113° Southeast 277 319 17,000  Level Memphis Center
Tue 06:31:58 PM 34.1736 -88.0147 110° East 289 333 17,000  Level Memphis Center
Tue 06:33:29 PM 34.1208 -87.8678 113° Southeast 300 345 17,000  Level Atlanta Center
Tue 06:34:29 PM 34.0881 -87.7786 114° Southeast 300 345 17,000  Level Atlanta Center
Tue 06:35:29 PM 34.0528 -87.7019 119° Southeast 295 339 17,000  Level Atlanta Center
Tue 06:36:29 PM 34.0114 -87.6172 120° Southeast 295 339 17,000  Level Atlanta Center
Tue 06:37:29 PM 33.9722 -87.5306 119° Southeast 295 339 17,000  Level Atlanta Center
Tue 06:38:29 PM 33.9308 -87.4436 120° Southeast 300 345 17,000  Level Atlanta Center
Tue 06:39:29 PM 33.8914 -87.3597 120° Southeast 300 345 17,000  Level Atlanta Center
Tue 06:40:29 PM 33.8708 -87.2661 105° East 295 339 17,000  Level Atlanta Center
Tue 06:41:29 PM 33.8756 -87.1689 87° East 279 321 17,000  Level Atlanta Center
Tue 06:42:29 PM 33.8800 -87.0689 87° East 284 327 17,000  Level Atlanta Center
Tue 06:43:29 PM 33.8806 -86.9689 90° East 290 334 17,000  Level Atlanta Center
Tue 06:44:29 PM 33.8869 -86.8739 85° East 290 334 17,000  Level Atlanta Center
Tue 06:45:29 PM 33.8953 -86.7767 84° East 290 334 17,000 -250 Level Atlanta Center
Tue 06:46:29 PM 33.9036 -86.6794 84° East 290 334 16,500 -950 Descending Atlanta Center
Tue 06:47:29 PM 33.9142 -86.5744 83° East 296 341 15,100 -1,350 Descending Atlanta Center
Tue 06:48:29 PM 33.9225 -86.4747 84° East 302 348 13,800 -1,350 Descending Atlanta Center
Tue 06:49:29 PM 33.9392 -86.3725 79° East 302 348 12,400 -1,350 Descending Atlanta Center
Tue 06:50:29 PM 33.9578 -86.2703 78° East 307 353 11,100 -750 Descending Atlanta Center
Tue 06:51:29 PM 33.9678 -86.1753 83° East 302 348 10,900 -100 Descending Atlanta Center
Tue 06:52:29 PM 33.9778 -86.0781 83° East 291 335 10,900  Level Atlanta Center
Tue 06:53:29 PM 33.9833 -85.9828 86° East 291 335 10,900  Level Atlanta Center
Tue 06:54:29 PM 33.9892 -85.8878 86° East 291 335 10,900 50 Level Atlanta Center
Tue 06:55:29 PM 33.9947 -85.7903 86° East 283 326 11,000 50 Climbing Atlanta Center
Tue 06:56:29 PM 34.0003 -85.6900 86° East 283 326 11,000 -50 Level Atlanta Center
Tue 06:57:29 PM 34.0036 -85.5950 88° East 283 326 10,900 -300 Descending Atlanta Center
Tue 06:58:29 PM 34.0069 -85.4972 88° East 288 331 10,400 -600 Descending Atlanta Center
Tue 06:59:29 PM 34.0039 -85.3969 92° East 288 331 9,700 -650 Descending Atlanta Center
Tue 07:00:29 PM 33.9986 -85.3117 94° East 288 331 9,100 -350 Descending Atlanta Center
Tue 07:01:29 PM 33.9931 -85.2214 94° East 283 326 9,000 -50 Descending Atlanta Center
Tue 07:02:29 PM 33.9919 -85.1286 91° East 273 314 9,000  Level Atlanta Center
Tue 07:03:29 PM 33.9844 -85.0333 95° East 273 314 9,000  Level Atlanta Center
Tue 07:04:29 PM 33.9558 -84.9503 113° Southeast 267 307 9,000  Level Atlanta Center
Tue 07:05:29 PM 33.9019 -84.8847 135° Southeast 272 313 9,000  Level Atlanta Center
Tue 07:06:02 PM 33.8500 -84.8667 164° South 272 313 9,000 -129 Level Atlanta TRACON
Tue 07:07:02 PM 33.7833 -84.8500 168° South 269 310 8,800 -526 Descending Atlanta TRACON
Tue 07:07:56 PM 33.7167 -84.8500 180° South 269 310 8,000 -526 Descending Atlanta TRACON
Tue 07:08:56 PM 33.6500 -84.8333 168° South 211 243 7,800 -632 Descending Atlanta TRACON
Tue 07:09:50 PM 33.6333 -84.7667 107° East 219 252 6,800 -1,105 Descending Atlanta TRACON
Tue 07:10:50 PM 33.6333 -84.7000 90° East 188 216 5,700 -1,143 Descending Atlanta TRACON
Tue 07:11:56 PM 33.6333 -84.6333 90° East 181 208 4,400 -1,190 Descending Atlanta TRACON
Tue 07:12:56 PM 33.6333 -84.5833 90° East 181 208 3,200 -1,050 Descending Atlanta TRACON
Tue 07:13:56 PM 33.6333 -84.5167 90° East 160 184 2,300 -800 Descending Atlanta TRACON
Tue 07:14:56 PM 33.6333 -84.4833 90° East 130 150 1,600 -700 Descending Atlanta TRACON
Tue 07:16:00 PM 33.6367 -84.4279 121° Southeast  Level Estimated
Tue 07:23:00 PM 33.6367 -84.4279 121° Southeast  Level Estimated
Tue 07:24:00 PM 33.6367 -84.4279 121° Southeast  Level Estimated

Login

Don't have an account? Register now (free) for customized features, flight alerts, and more!